createdAt,value
2018-05-11T00:04:49.188Z,7.73
2018-05-11T00:09:51.551Z,8.33
2018-05-11T00:14:52.954Z,8.13
2018-05-11T00:19:54.350Z,7.23
2018-05-11T00:24:56.464Z,7.83
2018-05-11T00:29:57.878Z,7.80
2018-05-11T00:34:59.393Z,8.60
2018-05-11T00:40:00.759Z,8.00
2018-05-11T00:45:02.242Z,7.00
2018-05-11T00:50:03.792Z,7.30
2018-05-11T00:55:18.592Z,7.80
2018-05-11T01:00:19.913Z,7.10
2018-05-11T01:05:21.198Z,7.90
2018-05-11T01:10:22.532Z,7.83
2018-05-11T01:15:24.625Z,7.50
2018-05-11T01:20:27.064Z,6.80
2018-05-11T01:25:28.471Z,7.20
2018-05-11T01:30:29.854Z,6.97
2018-05-11T01:35:32.222Z,6.03
2018-05-11T01:40:34.306Z,7.03
2018-05-11T01:45:36.498Z,7.53
2018-05-11T01:50:38.902Z,7.00
2018-05-11T01:55:41.341Z,6.07
2018-05-11T02:00:42.727Z,6.23
2018-05-11T02:05:44.192Z,6.90
2018-05-11T02:10:45.574Z,6.80
2018-05-11T02:15:47.038Z,6.87
2018-05-11T02:20:49.488Z,6.67
2018-05-11T02:25:51.636Z,7.30
2018-05-11T02:30:53.785Z,7.63
2018-05-11T02:35:55.200Z,6.60
2018-05-11T02:40:57.342Z,6.33
2018-05-11T02:45:58.640Z,6.53
2018-05-11T02:51:00.922Z,6.20
2018-05-11T02:56:02.263Z,6.47
2018-05-11T03:01:03.559Z,6.53
2018-05-11T03:06:04.986Z,6.97
2018-05-11T03:11:06.278Z,7.13
2018-05-11T03:16:07.531Z,6.77
2018-05-11T03:21:08.944Z,6.83
2018-05-11T03:26:10.244Z,6.87
2018-05-11T03:31:11.538Z,5.93
2018-05-11T03:36:12.898Z,6.70
2018-05-11T03:41:14.232Z,6.53
2018-05-11T03:46:15.514Z,6.97
2018-05-11T03:51:16.843Z,7.70
2018-05-11T03:56:18.228Z,7.63
2018-05-11T04:01:31.802Z,8.03
2018-05-11T04:06:45.498Z,7.30
2018-05-11T04:11:46.783Z,7.40
2018-05-11T04:16:48.154Z,6.77
2018-05-11T04:21:50.413Z,7.03
2018-05-11T04:26:51.715Z,7.10
2018-05-11T04:31:52.942Z,6.87
2018-05-11T04:36:55.300Z,7.00
2018-05-11T04:41:57.625Z,5.37
2018-05-11T04:46:58.935Z,6.07
2018-05-11T04:52:01.042Z,5.60
2018-05-11T04:57:02.350Z,4.77
2018-05-11T05:02:03.771Z,4.90
2018-05-11T05:07:05.146Z,4.53
2018-05-11T05:12:07.527Z,4.30
2018-05-11T05:17:08.808Z,4.23
2018-05-11T05:22:10.309Z,5.77
2018-05-11T05:27:12.719Z,5.30
2018-05-11T05:32:14.117Z,6.03
2018-05-11T05:37:15.477Z,5.73
2018-05-11T05:42:16.855Z,5.73
2018-05-11T05:47:19.211Z,6.60
2018-05-11T05:52:20.514Z,7.00
2018-05-11T05:57:22.766Z,6.57
2018-05-11T06:02:25.083Z,6.23
2018-05-11T06:07:26.385Z,6.40
2018-05-11T06:12:27.787Z,5.30
2018-05-11T06:17:30.234Z,5.93
2018-05-11T06:22:31.576Z,6.27
2018-05-11T06:27:32.900Z,7.23
2018-05-11T06:32:34.225Z,7.53
2018-05-11T06:37:36.342Z,7.37
2018-05-11T06:42:37.653Z,7.60
2018-05-11T06:47:40.713Z,7.87
2018-05-11T06:52:42.126Z,8.80
2018-05-11T06:57:43.649Z,6.50
2018-05-11T07:02:46.660Z,6.13
2018-05-11T07:07:48.035Z,5.43
2018-05-11T07:12:49.579Z,6.70
2018-05-11T07:17:50.978Z,6.47
2018-05-11T07:22:53.304Z,7.63
2018-05-11T07:27:54.715Z,6.23
2018-05-11T07:32:57.111Z,6.67
2018-05-11T07:37:58.448Z,6.60
2018-05-11T07:42:59.716Z,7.07
2018-05-11T07:48:01.054Z,6.43
2018-05-11T07:53:02.396Z,6.13
2018-05-11T07:58:03.765Z,6.47
2018-05-11T08:03:05.253Z,6.27
2018-05-11T08:08:06.676Z,7.27
2018-05-11T08:13:08.781Z,6.97
2018-05-11T08:18:10.057Z,6.80
2018-05-11T08:23:11.381Z,7.03
2018-05-11T08:28:13.502Z,6.73
2018-05-11T08:33:14.815Z,6.83
2018-05-11T08:38:16.968Z,6.93
2018-05-11T08:43:18.427Z,6.90
2018-05-11T08:48:20.760Z,6.87
2018-05-11T08:53:22.995Z,6.90
2018-05-11T08:58:24.697Z,5.70
2018-05-11T09:03:26.997Z,6.70
2018-05-11T09:08:29.184Z,5.57
2018-05-11T09:13:30.594Z,6.63
2018-05-11T09:18:32.042Z,4.80
2018-05-11T09:23:33.545Z,5.37
2018-05-11T09:28:35.125Z,5.53
2018-05-11T09:33:37.514Z,5.13
2018-05-11T09:38:39.100Z,5.57
2018-05-11T09:43:40.585Z,4.77
2018-05-11T09:48:43.947Z,6.17
2018-05-11T09:53:45.235Z,5.73
2018-05-11T09:58:47.362Z,4.87
2018-05-11T10:03:48.716Z,5.27
2018-05-11T10:08:52.137Z,4.60
2018-05-11T10:13:53.653Z,5.03
2018-05-11T10:18:55.136Z,4.37
2018-05-11T10:23:59.843Z,4.53
2018-05-11T10:29:02.361Z,4.60
2018-05-11T10:34:04.632Z,4.07
2018-05-11T10:39:07.020Z,4.93
2018-05-11T10:44:08.650Z,4.47
2018-05-11T10:49:10.190Z,4.20
2018-05-11T10:54:11.503Z,4.50
2018-05-11T10:59:12.990Z,5.27
2018-05-11T11:04:18.381Z,4.23
2018-05-11T11:09:20.577Z,4.10
2018-05-11T11:14:22.355Z,3.80
2018-05-11T11:19:24.070Z,4.00
2018-05-11T11:24:27.490Z,2.70
2018-05-11T11:29:32.616Z,5.07
2018-05-11T11:34:35.510Z,3.63
2018-05-11T11:39:37.133Z,3.17
2018-05-11T11:44:39.825Z,3.20
2018-05-11T11:49:41.318Z,3.20
2018-05-11T11:54:44.119Z,2.90
2018-05-11T11:59:45.736Z,2.83
2018-05-11T12:04:50.764Z,9.43
2018-05-11T12:09:52.298Z,3.03
2018-05-11T12:14:53.931Z,2.80
2018-05-11T12:19:55.412Z,2.70
2018-05-11T12:24:56.975Z,2.70
2018-05-11T12:29:58.448Z,3.00
2018-05-11T12:35:01.951Z,2.97
2018-05-11T12:40:04.774Z,3.00
2018-05-11T12:45:06.517Z,2.93
2018-05-11T12:50:08.020Z,3.07
2018-05-11T12:55:09.431Z,13.43
2018-05-11T13:00:11.764Z,2.10
2018-05-11T13:05:14.408Z,2.30
2018-05-11T13:10:16.388Z,2.20
2018-05-11T13:15:17.993Z,2.63
2018-05-11T13:20:19.490Z,2.33
2018-05-11T13:25:21.034Z,2.17
2018-05-11T13:30:22.702Z,2.50
2018-05-11T13:35:24.222Z,2.23
2018-05-11T13:40:25.595Z,2.03
2018-05-11T13:45:26.930Z,2.20
2018-05-11T13:50:29.755Z,6.33
2018-05-11T13:55:31.107Z,3.43
2018-05-11T14:00:53.269Z,3.53
2018-05-11T14:01:09.541Z,3.10
2018-05-11T14:01:26.524Z,2.78
2018-05-11T14:01:42.835Z,2.83
2018-05-11T14:01:59.056Z,3.17
2018-05-11T14:02:37.900Z,2.63
2018-05-11T14:02:54.908Z,3.00
2018-05-11T14:03:12.942Z,3.12
2018-05-11T14:03:30.011Z,4.45
2018-05-11T14:03:46.983Z,4.22
2018-05-11T14:04:03.337Z,3.00
2018-05-11T14:04:19.586Z,3.10
2018-05-11T14:04:36.679Z,3.00
2018-05-11T14:04:52.818Z,3.20
2018-05-11T14:05:09.117Z,3.83
2018-05-11T14:05:25.448Z,3.47
2018-05-11T14:05:42.432Z,3.28
2018-05-11T14:05:58.641Z,3.30
2018-05-11T14:06:14.843Z,3.05
2018-05-11T14:06:31.185Z,3.15
2018-05-11T14:06:47.494Z,3.00
2018-05-11T14:07:03.886Z,3.30
2018-05-11T14:07:20.259Z,3.80
2018-05-11T14:07:39.258Z,3.47
2018-05-11T14:07:55.702Z,3.20
2018-05-11T14:08:12.170Z,3.20
2018-05-11T14:08:28.663Z,3.60
2018-05-11T14:08:45.129Z,3.25
2018-05-11T14:09:01.673Z,3.50
2018-05-11T14:09:18.134Z,3.62
2018-05-11T14:09:34.607Z,4.45
2018-05-11T14:09:51.096Z,6.28
2018-05-11T14:10:07.545Z,6.97
2018-05-11T14:10:24.888Z,6.05
2018-05-11T14:10:41.367Z,5.65
2018-05-11T14:10:57.910Z,7.37
2018-05-11T14:11:14.413Z,7.18
2018-05-11T14:11:31.691Z,5.82
2018-05-11T14:11:48.181Z,6.82
2018-05-11T14:12:04.672Z,6.57
2018-05-11T14:12:21.088Z,6.32
2018-05-11T14:12:38.189Z,4.50
2018-05-11T14:12:54.556Z,3.03
2018-05-11T14:13:11.641Z,3.33
2018-05-11T14:13:45.100Z,2.80
2018-05-11T14:14:02.270Z,3.28
2018-05-11T14:14:19.564Z,3.33
2018-05-11T14:14:35.853Z,3.63
2018-05-11T14:14:52.209Z,3.62
2018-05-11T14:15:08.502Z,3.60
2018-05-11T14:20:10.022Z,3.56
2018-05-11T14:25:11.339Z,4.30
2018-05-11T14:30:12.873Z,3.50
2018-05-11T14:36:25.795Z,3.55
2018-05-11T14:36:37.083Z,3.75
2018-05-11T14:36:58.847Z,3.30
2018-05-11T14:42:20.344Z,3.40
2018-05-11T14:47:21.812Z,3.97
2018-05-11T14:52:23.167Z,3.80
2018-05-11T14:57:24.649Z,4.67
2018-05-11T15:02:26.014Z,4.23
2018-05-11T15:07:27.351Z,4.57
2018-05-11T15:12:28.726Z,5.03
2018-05-11T15:17:30.078Z,4.07
2018-05-11T15:22:31.422Z,4.20
2018-05-11T15:27:32.875Z,4.10
2018-05-11T15:32:35.291Z,4.17
2018-05-11T15:37:36.659Z,4.03
2018-05-11T15:42:38.107Z,4.37
2018-05-11T15:47:39.359Z,4.40
2018-05-11T15:52:41.242Z,3.90
2018-05-11T15:57:42.655Z,3.90
2018-05-11T16:02:45.227Z,4.40
2018-05-11T16:07:46.690Z,4.33
2018-05-11T16:12:48.929Z,4.17
2018-05-11T16:17:50.126Z,4.20
2018-05-11T16:22:51.640Z,4.63
2018-05-11T16:27:53.648Z,5.53
2018-05-11T16:32:54.917Z,7.23
2018-05-11T16:37:56.160Z,8.53
2018-05-11T16:43:01.673Z,6.77
2018-05-11T16:48:03.062Z,6.27
2018-05-11T16:53:05.044Z,5.47
2018-05-11T16:58:06.374Z,4.90
2018-05-11T17:03:07.715Z,4.87
2018-05-11T17:08:09.043Z,4.93
2018-05-11T17:13:11.383Z,5.33
2018-05-11T17:18:12.764Z,5.27
2018-05-11T17:23:14.163Z,4.83
2018-05-11T17:28:15.461Z,5.73
2018-05-11T17:33:16.757Z,5.20
2018-05-11T17:38:18.808Z,5.47
2018-05-11T17:43:20.882Z,5.47
2018-05-11T17:48:22.171Z,5.50
2018-05-11T17:53:23.440Z,6.93
2018-05-11T17:58:25.535Z,6.27
2018-05-11T18:03:26.921Z,6.53
2018-05-11T18:08:28.279Z,5.87
2018-05-11T18:13:29.620Z,5.97
2018-05-11T18:18:31.015Z,5.03
2018-05-11T18:23:32.334Z,6.13
2018-05-11T18:28:33.725Z,6.63
2018-05-11T18:33:35.028Z,6.17
2018-05-11T18:38:36.378Z,7.10
2018-05-11T18:43:37.758Z,9.17
2018-05-11T18:48:38.988Z,7.30
2018-05-11T18:53:40.747Z,7.33
2018-05-11T18:58:41.729Z,7.63
2018-05-11T19:03:43.783Z,8.73
2018-05-11T19:08:45.073Z,7.90
2018-05-11T19:13:46.328Z,8.27
2018-05-11T19:18:47.812Z,7.90
2018-05-11T19:23:49.174Z,8.67
2018-05-11T19:28:50.417Z,7.93
2018-05-11T19:33:51.682Z,8.17
2018-05-11T19:38:53.036Z,6.50
2018-05-11T19:43:54.310Z,7.30
2018-05-11T19:48:56.481Z,7.13
2018-05-11T19:53:57.913Z,6.33
2018-05-11T19:58:59.941Z,6.70
2018-05-11T20:04:01.215Z,6.43
2018-05-11T20:09:02.804Z,8.10
2018-05-11T20:14:04.852Z,5.80
2018-05-11T20:19:06.414Z,6.17
2018-05-11T20:24:08.542Z,5.33
2018-05-11T20:29:10.569Z,5.57
2018-05-11T20:34:11.862Z,5.97
2018-05-11T20:39:13.190Z,6.40
2018-05-11T20:44:14.399Z,5.67
2018-05-11T20:49:17.528Z,4.27
2018-05-11T20:54:18.935Z,6.07
2018-05-11T20:59:20.311Z,4.77
2018-05-11T21:04:21.682Z,4.73
2018-05-11T21:09:23.023Z,4.70
2018-05-11T21:14:24.320Z,6.27
2018-05-11T21:19:26.322Z,4.93
2018-05-11T21:24:27.630Z,5.87
2018-05-11T21:29:29.726Z,5.30
2018-05-11T21:34:31.060Z,5.20
2018-05-11T21:39:33.327Z,5.47
2018-05-11T21:44:34.723Z,5.87
2018-05-11T21:49:35.990Z,6.20
2018-05-11T21:54:37.357Z,6.30
2018-05-11T21:59:38.791Z,4.57
2018-05-11T22:04:40.855Z,4.20
2018-05-11T22:09:42.165Z,4.90
2018-05-11T22:14:43.565Z,5.50
2018-05-11T22:19:45.703Z,6.37
2018-05-11T22:24:47.182Z,5.53
2018-05-11T22:29:48.552Z,5.90
2018-05-11T22:34:49.955Z,5.63
2018-05-11T22:39:51.267Z,6.63
2018-05-11T22:44:52.624Z,7.17
2018-05-11T22:49:53.949Z,7.30
2018-05-11T22:54:56.354Z,8.07
2018-05-11T22:59:58.541Z,7.30
2018-05-11T23:04:59.880Z,6.73
2018-05-11T23:10:01.332Z,7.37
2018-05-11T23:15:02.637Z,6.43
2018-05-11T23:20:03.982Z,4.53
2018-05-11T23:25:05.311Z,3.93
2018-05-11T23:30:06.733Z,5.27
2018-05-11T23:35:08.200Z,6.70
2018-05-11T23:40:09.462Z,6.27
2018-05-11T23:45:10.830Z,6.70
2018-05-11T23:50:12.263Z,6.30
2018-05-11T23:55:13.592Z,6.40
